Time;durP1;ratioP1;P1;durP2;ratioP2;P2;SDS_P1;SDS_P2;PMS_P1;PMS_P2;Temp;Humidity;BMP_temperature;BMP_pressure;BME280_temperature;BME280_humidity;BME280_pressure;Samples;Min_cycle;Max_cycle;Signal;HPM_P1;HPM_P2
2022/09/13 00:01:42;;;;;;;4.12;3.72;;;17.50;74.30;;;;;;912663;153;27363;-74
2022/09/13 00:04:09;;;;;;;5.25;4.47;;;17.40;73.80;;;;;;913285;153;27344;-74
2022/09/13 00:06:35;;;;;;;4.55;4.17;;;17.40;73.90;;;;;;912538;153;27347;-74
2022/09/13 00:09:01;;;;;;;4.92;4.53;;;17.40;74.10;;;;;;913276;153;27917;-75
2022/09/13 00:11:28;;;;;;;4.30;4.00;;;17.30;74.40;;;;;;911245;153;27368;-74
2022/09/13 00:13:55;;;;;;;5.72;4.37;;;17.30;74.20;;;;;;912952;153;27378;-74
2022/09/13 00:16:21;;;;;;;4.50;4.20;;;17.30;74.40;;;;;;913776;153;27346;-75
2022/09/13 00:18:48;;;;;;;5.10;4.70;;;17.20;74.60;;;;;;911947;153;27397;-74
2022/09/13 00:21:14;;;;;;;4.75;4.35;;;17.20;74.70;;;;;;913626;153;27302;-75
2022/09/13 00:23:44;;;;;;;4.67;4.28;;;17.20;75.70;;;;;;911093;153;27304;-75
2022/09/13 00:26:10;;;;;;;4.60;4.20;;;17.10;75.00;;;;;;911748;153;27896;-75
2022/09/13 00:28:37;;;;;;;4.37;4.08;;;17.10;75.10;;;;;;913011;152;27343;-74
2022/09/13 00:31:03;;;;;;;5.37;4.35;;;17.00;75.30;;;;;;911529;153;27421;-74
2022/09/13 00:33:30;;;;;;;4.27;3.97;;;17.00;75.60;;;;;;912208;153;27379;-74
2022/09/13 00:35:57;;;;;;;4.43;4.03;;;17.00;75.80;;;;;;912682;153;27449;-75
2022/09/13 00:38:23;;;;;;;5.85;4.62;;;16.90;76.00;;;;;;914678;153;27420;-75
2022/09/13 00:40:50;;;;;;;4.57;4.20;;;16.90;76.40;;;;;;911655;153;27341;-74
2022/09/13 00:43:16;;;;;;;4.30;3.90;;;16.90;76.60;;;;;;912567;153;27348;-75
2022/09/13 00:45:43;;;;;;;5.00;4.60;;;16.80;76.90;;;;;;911232;153;27273;-75
2022/09/13 00:48:10;;;;;;;4.90;4.50;;;16.80;77.10;;;;;;912618;153;27763;-75
2022/09/13 00:50:39;;;;;;;5.00;4.53;;;16.70;77.20;;;;;;911727;152;27732;-74
2022/09/13 00:53:08;;;;;;;4.70;4.30;;;16.70;77.50;;;;;;912910;153;28776;-75
2022/09/13 00:55:35;;;;;;;4.90;4.50;;;16.70;77.70;;;;;;912872;153;27350;-75
2022/09/13 00:58:01;;;;;;;5.20;4.80;;;16.60;77.70;;;;;;910108;153;27315;-75
2022/09/13 01:00:28;;;;;;;4.97;4.57;;;16.60;78.00;;;;;;913887;153;27342;-75
2022/09/13 01:02:54;;;;;;;4.97;4.57;;;16.60;78.20;;;;;;914840;153;27371;-74
2022/09/13 01:05:21;;;;;;;6.00;4.87;;;16.50;78.50;;;;;;917334;152;27448;-74
2022/09/13 01:07:48;;;;;;;4.85;4.45;;;16.50;78.80;;;;;;919337;152;27331;-75
2022/09/13 01:10:14;;;;;;;5.30;4.90;;;16.40;79.10;;;;;;917417;152;27335;-74
2022/09/13 01:12:42;;;;;;;6.33;4.83;;;16.40;79.40;;;;;;921405;152;27331;-75
2022/09/13 01:15:07;;;;;;;5.40;4.50;;;16.40;79.80;;;;;;917384;152;27362;-74
2022/09/13 01:17:34;;;;;;;5.17;4.67;;;16.30;80.00;;;;;;919311;151;27366;-74
2022/09/13 01:20:00;;;;;;;4.70;4.30;;;16.30;80.50;;;;;;918151;152;27310;-74
2022/09/13 01:22:33;;;;;;;4.70;4.17;;;16.20;80.40;;;;;;918535;152;27326;-75
2022/09/13 01:25:37;;;;;;;5.10;4.27;;;16.20;80.70;;;;;;917192;152;27327;-75
2022/09/13 01:28:21;;;;;;;5.13;4.23;;;16.20;80.90;;;;;;918278;152;27364;-75
2022/09/13 01:30:57;;;;;;;5.20;4.10;;;16.20;80.90;;;;;;918973;152;27363;-74
2022/09/13 01:33:26;;;;;;;5.07;4.67;;;16.10;81.20;;;;;;919253;152;27398;-75
2022/09/13 01:36:01;;;;;;;5.00;4.60;;;16.10;81.70;;;;;;915372;152;27411;-75
2022/09/13 01:38:50;;;;;;;4.50;4.10;;;16.00;82.00;;;;;;917681;152;27434;-75
2022/09/13 01:41:30;;;;;;;5.67;5.17;;;16.00;82.30;;;;;;918708;152;27370;-75
2022/09/13 01:43:57;;;;;;;4.80;4.40;;;15.90;82.30;;;;;;916806;152;27429;-74
2022/09/13 01:46:26;;;;;;;4.90;4.50;;;15.90;82.70;;;;;;918411;152;27339;-75
2022/09/13 01:49:11;;;;;;;5.57;5.07;;;15.90;83.00;;;;;;915617;152;27381;-74
2022/09/13 01:51:38;;;;;;;6.63;4.60;;;15.80;83.20;;;;;;916287;151;27350;-74
2022/09/13 01:54:26;;;;;;;5.03;4.60;;;15.80;83.50;;;;;;912854;152;27427;-75
2022/09/13 01:56:59;;;;;;;4.97;4.57;;;15.80;84.10;;;;;;917330;152;27400;-75
2022/09/13 01:59:52;;;;;;;5.30;4.90;;;15.70;84.10;;;;;;916639;151;27374;-74
2022/09/13 02:02:25;;;;;;;5.50;5.00;;;15.70;84.60;;;;;;918879;152;28049;-74
2022/09/13 02:04:54;;;;;;;5.90;4.70;;;15.70;84.80;;;;;;919364;152;27318;-74
2022/09/13 02:07:24;;;;;;;5.40;4.90;;;15.60;85.60;;;;;;920132;152;27337;-74
2022/09/13 02:09:50;;;;;;;5.80;5.00;;;15.60;86.00;;;;;;919318;152;27692;-74
2022/09/13 02:12:20;;;;;;;5.67;5.17;;;15.60;86.70;;;;;;918064;152;27419;-75
2022/09/13 02:14:46;;;;;;;5.10;4.70;;;15.60;87.20;;;;;;918639;149;27831;-75
2022/09/13 02:17:14;;;;;;;6.03;5.43;;;15.60;87.30;;;;;;918932;151;27396;-75
2022/09/13 02:19:52;;;;;;;5.73;5.23;;;15.60;87.80;;;;;;916672;151;27310;-76
2022/09/13 02:22:18;;;;;;;5.27;4.87;;;15.60;88.40;;;;;;919637;152;27681;-76
2022/09/13 02:24:45;;;;;;;5.53;5.10;;;15.70;88.90;;;;;;917056;152;27383;-77
2022/09/13 02:27:20;;;;;;;6.10;5.50;;;15.70;89.10;;;;;;917030;152;27460;-76
2022/09/13 02:29:47;;;;;;;5.13;4.63;;;15.70;89.20;;;;;;918506;152;27433;-76
2022/09/13 02:32:16;;;;;;;7.17;5.37;;;15.70;89.20;;;;;;917842;152;27375;-76
2022/09/13 02:34:42;;;;;;;5.43;4.93;;;15.70;89.30;;;;;;916450;152;27444;-76
2022/09/13 02:37:09;;;;;;;5.23;4.83;;;15.70;89.30;;;;;;919103;152;27427;-76
2022/09/13 02:39:36;;;;;;;5.60;5.10;;;15.70;89.50;;;;;;918256;152;27453;-76
2022/09/13 02:42:08;;;;;;;5.83;5.33;;;15.60;89.70;;;;;;917614;152;27335;-76
2022/09/13 02:44:43;;;;;;;9.50;4.63;;;15.60;89.90;;;;;;917311;152;27384;-76
2022/09/13 02:47:21;;;;;;;4.97;4.57;;;15.60;90.00;;;;;;919488;152;27461;-76
2022/09/13 02:49:51;;;;;;;5.93;5.43;;;15.60;90.10;;;;;;917990;152;27391;-76
2022/09/13 02:52:36;;;;;;;5.90;5.40;;;15.60;90.30;;;;;;920413;152;27395;-76
2022/09/13 02:55:20;;;;;;;6.00;5.50;;;15.50;90.10;;;;;;919397;151;27436;-77
2022/09/13 02:57:50;;;;;;;5.70;5.10;;;15.50;90.40;;;;;;908416;152;27476;-76
2022/09/13 03:00:17;;;;;;;5.60;5.20;;;15.50;90.50;;;;;;919803;152;27389;-75
2022/09/13 03:02:43;;;;;;;5.83;5.20;;;15.40;90.70;;;;;;919001;152;27383;-76
2022/09/13 03:05:10;;;;;;;5.67;5.17;;;15.40;90.90;;;;;;920907;152;27412;-76
2022/09/13 03:07:36;;;;;;;5.97;5.47;;;15.40;91.10;;;;;;921311;152;27335;-76
2022/09/13 03:10:04;;;;;;;6.47;5.57;;;15.40;91.40;;;;;;919904;152;27432;-76
2022/09/13 03:12:41;;;;;;;5.60;5.17;;;15.40;91.60;;;;;;920127;152;27379;-75
2022/09/13 03:15:13;;;;;;;5.57;5.07;;;15.30;91.70;;;;;;917248;152;27429;-75
2022/09/13 03:17:53;;;;;;;6.77;5.50;;;15.30;91.80;;;;;;917540;152;27401;-75
2022/09/13 03:20:43;;;;;;;5.80;5.33;;;15.30;92.00;;;;;;919304;152;27412;-75
2022/09/13 03:23:24;;;;;;;5.93;5.43;;;15.30;92.20;;;;;;917878;152;27471;-75
2022/09/13 03:25:56;;;;;;;6.27;5.77;;;15.30;92.30;;;;;;916732;152;27371;-74
2022/09/13 03:28:35;;;;;;;5.93;5.43;;;15.30;92.40;;;;;;917684;152;27315;-74
2022/09/13 03:31:01;;;;;;;6.50;5.93;;;15.30;92.80;;;;;;917764;152;27782;-75
2022/09/13 03:33:31;;;;;;;6.60;6.00;;;15.40;92.90;;;;;;914963;152;27456;-74
2022/09/13 03:36:00;;;;;;;6.63;6.03;;;15.40;93.20;;;;;;918011;152;27370;-75
2022/09/13 03:38:27;;;;;;;7.00;6.40;;;15.40;93.30;;;;;;916517;152;27339;-75
2022/09/13 03:41:01;;;;;;;6.90;5.53;;;15.40;93.40;;;;;;918800;152;27417;-75
2022/09/13 03:43:34;;;;;;;7.47;6.30;;;15.50;93.60;;;;;;919313;152;27399;-75
2022/09/13 03:45:58;;;;;;;6.33;5.73;;;15.50;93.60;;;;;;918242;152;27464;-74
2022/09/13 03:48:26;;;;;;;6.67;6.07;;;15.60;93.70;;;;;;917137;151;27343;-74
2022/09/13 03:50:51;;;;;;;5.70;5.20;;;15.60;93.70;;;;;;917933;152;27420;-74
2022/09/13 03:53:21;;;;;;;6.40;5.80;;;15.70;93.80;;;;;;917634;152;27362;-73
2022/09/13 03:55:47;;;;;;;7.03;6.33;;;15.70;93.80;;;;;;920901;151;27357;-75
2022/09/13 03:58:14;;;;;;;6.57;5.77;;;15.80;93.90;;;;;;920666;152;27447;-74
2022/09/13 04:00:41;;;;;;;5.97;5.47;;;15.80;93.80;;;;;;918708;152;27352;-74
2022/09/13 04:03:08;;;;;;;6.27;5.67;;;15.90;93.80;;;;;;917619;152;27376;-74
2022/09/13 04:05:34;;;;;;;6.67;5.57;;;15.90;93.70;;;;;;917086;151;27323;-74
2022/09/13 04:08:00;;;;;;;6.60;5.50;;;15.90;93.80;;;;;;918817;152;27457;-74
2022/09/13 04:10:27;;;;;;;5.97;5.47;;;16.00;93.80;;;;;;918915;152;27381;-74
2022/09/13 04:12:54;;;;;;;5.83;5.33;;;16.00;93.70;;;;;;920169;152;27929;-74
2022/09/13 04:15:20;;;;;;;5.63;5.13;;;16.00;93.60;;;;;;918328;152;27336;-74
2022/09/13 04:17:47;;;;;;;6.00;5.50;;;16.00;93.50;;;;;;917703;152;27437;-74
2022/09/13 04:20:13;;;;;;;6.55;5.95;;;16.10;93.50;;;;;;918924;152;27627;-74
2022/09/13 04:22:41;;;;;;;6.62;6.03;;;16.10;93.50;;;;;;918861;152;27438;-74
2022/09/13 04:25:07;;;;;;;7.40;6.20;;;16.10;93.50;;;;;;918155;151;27362;-74
2022/09/13 04:27:34;;;;;;;6.53;5.90;;;16.10;93.50;;;;;;918211;152;27295;-74
2022/09/13 04:30:00;;;;;;;5.97;5.47;;;16.10;93.60;;;;;;919092;152;27399;-74
2022/09/13 04:32:26;;;;;;;6.03;5.37;;;16.10;93.60;;;;;;919879;152;27318;-74
2022/09/13 04:34:53;;;;;;;6.23;5.63;;;16.10;93.60;;;;;;918711;152;27275;-74
2022/09/13 04:37:20;;;;;;;6.00;5.40;;;16.10;93.70;;;;;;919080;151;27358;-75
2022/09/13 04:39:46;;;;;;;7.10;6.40;;;16.10;93.70;;;;;;919587;152;28380;-74
2022/09/13 04:42:13;;;;;;;7.65;5.35;;;16.10;93.70;;;;;;917693;152;27330;-74
2022/09/13 04:44:39;;;;;;;5.87;5.15;;;16.10;93.70;;;;;;918685;151;27302;-74
2022/09/13 04:47:07;;;;;;;6.17;5.57;;;16.10;93.70;;;;;;918290;152;27319;-74
2022/09/13 04:49:32;;;;;;;5.73;5.27;;;16.10;93.70;;;;;;917936;152;27366;-76
2022/09/13 04:51:59;;;;;;;6.13;5.57;;;16.10;93.80;;;;;;918328;152;27334;-76
2022/09/13 04:54:26;;;;;;;6.03;5.53;;;16.10;93.80;;;;;;919633;152;27355;-76
2022/09/13 04:56:54;;;;;;;6.10;5.60;;;16.10;93.80;;;;;;917438;151;27806;-77
2022/09/13 04:59:19;;;;;;;6.03;5.43;;;16.20;93.90;;;;;;919040;152;27356;-77
2022/09/13 05:01:45;;;;;;;5.23;4.73;;;16.20;93.90;;;;;;919326;152;27439;-76
2022/09/13 05:04:12;;;;;;;5.73;5.23;;;16.20;93.90;;;;;;918107;152;28100;-76
2022/09/13 05:06:39;;;;;;;6.20;5.60;;;16.20;94.00;;;;;;917712;152;27343;-76
2022/09/13 05:09:05;;;;;;;5.57;5.00;;;16.20;94.00;;;;;;918316;152;27406;-76
2022/09/13 05:11:32;;;;;;;5.85;5.35;;;16.20;94.00;;;;;;918811;151;27419;-76
2022/09/13 05:13:58;;;;;;;5.55;5.05;;;16.20;94.10;;;;;;921179;152;27431;-76
2022/09/13 05:16:28;;;;;;;5.70;5.20;;;16.20;94.10;;;;;;918071;152;27337;-76
2022/09/13 05:18:54;;;;;;;5.40;4.90;;;16.30;94.20;;;;;;920095;152;27328;-76
2022/09/13 05:21:21;;;;;;;5.33;4.70;;;16.30;94.20;;;;;;918344;152;27372;-76
2022/09/13 05:23:50;;;;;;;5.33;4.92;;;16.30;94.20;;;;;;919482;152;27327;-76
2022/09/13 05:26:17;;;;;;;5.53;4.97;;;16.30;94.30;;;;;;919201;151;27937;-76
2022/09/13 05:28:43;;;;;;;6.80;5.60;;;16.40;94.40;;;;;;918773;152;27404;-76
2022/09/13 05:31:10;;;;;;;5.33;4.83;;;16.40;94.40;;;;;;916750;152;27315;-76
2022/09/13 05:33:37;;;;;;;5.35;4.85;;;16.40;94.30;;;;;;918359;152;27401;-77
2022/09/13 05:36:03;;;;;;;8.58;5.25;;;16.50;94.30;;;;;;916426;151;27510;-77
2022/09/13 05:38:30;;;;;;;5.15;4.65;;;16.50;94.30;;;;;;919758;152;27461;-76
2022/09/13 05:41:02;;;;;;;5.43;4.93;;;16.60;94.30;;;;;;918032;152;27267;-76
2022/09/13 05:43:29;;;;;;;4.95;4.55;;;16.60;94.30;;;;;;919240;151;27378;-77
2022/09/13 05:46:07;;;;;;;5.80;5.17;;;16.70;94.30;;;;;;918283;151;27319;-77
2022/09/13 05:48:34;;;;;;;5.47;5.07;;;16.70;94.20;;;;;;918475;152;27367;-75
2022/09/13 05:51:04;;;;;;;5.28;4.65;;;16.80;94.10;;;;;;919350;152;27449;-75
2022/09/13 05:53:30;;;;;;;5.30;4.90;;;16.80;94.10;;;;;;920430;151;27350;-75
2022/09/13 05:55:57;;;;;;;4.58;4.20;;;16.90;94.10;;;;;;917926;152;27393;-74
2022/09/13 05:58:23;;;;;;;5.53;4.87;;;17.00;94.10;;;;;;919684;151;27400;-75
2022/09/13 06:00:56;;;;;;;5.17;4.67;;;17.00;94.00;;;;;;919388;152;27318;-75
2022/09/13 06:03:23;;;;;;;4.85;4.45;;;17.10;94.00;;;;;;919664;152;27371;-76
2022/09/13 06:05:50;;;;;;;5.23;4.73;;;17.20;94.00;;;;;;919444;152;27324;-75
2022/09/13 06:08:16;;;;;;;4.85;4.45;;;17.20;93.80;;;;;;916684;152;27459;-75
2022/09/13 06:10:43;;;;;;;5.87;5.00;;;17.30;93.70;;;;;;917511;152;27305;-76
2022/09/13 06:13:09;;;;;;;5.37;4.97;;;17.40;93.70;;;;;;920462;152;27408;-76
2022/09/13 06:15:36;;;;;;;4.83;4.42;;;17.40;93.70;;;;;;918310;151;27338;-76
2022/09/13 06:18:02;;;;;;;5.10;4.70;;;17.50;93.60;;;;;;919462;152;27371;-76
2022/09/13 06:20:29;;;;;;;4.70;4.30;;;17.60;93.60;;;;;;919204;152;28331;-76
2022/09/13 06:22:56;;;;;;;4.60;4.20;;;17.70;93.60;;;;;;918657;152;27453;-76
2022/09/13 06:25:22;;;;;;;4.97;4.58;;;17.70;93.60;;;;;;917171;151;27372;-76
2022/09/13 06:27:49;;;;;;;5.17;4.67;;;17.90;93.60;;;;;;917851;152;27275;-76
2022/09/13 06:30:15;;;;;;;4.80;4.40;;;17.90;93.30;;;;;;918554;152;27367;-76
2022/09/13 06:32:42;;;;;;;4.50;4.10;;;18.00;93.20;;;;;;917748;151;27354;-76
2022/09/13 06:35:08;;;;;;;5.10;4.70;;;18.10;93.00;;;;;;918531;152;27776;-76
2022/09/13 06:37:35;;;;;;;4.75;4.35;;;18.20;92.70;;;;;;918326;151;27480;-76
2022/09/13 06:40:04;;;;;;;4.70;4.30;;;18.30;92.40;;;;;;919384;152;27993;-76
2022/09/13 06:42:28;;;;;;;4.53;4.17;;;18.40;92.20;;;;;;919953;152;27356;-77
2022/09/13 06:44:55;;;;;;;4.92;4.53;;;18.50;91.90;;;;;;920590;152;27523;-76
2022/09/13 06:47:22;;;;;;;5.05;4.62;;;18.50;91.70;;;;;;919376;152;27445;-76
2022/09/13 06:49:48;;;;;;;5.00;4.60;;;18.60;91.40;;;;;;919482;151;27268;-76
2022/09/13 06:52:15;;;;;;;5.62;5.08;;;18.60;91.30;;;;;;919245;151;27307;-76
2022/09/13 06:54:42;;;;;;;5.28;4.87;;;18.70;91.20;;;;;;918445;152;27339;-76
2022/09/13 06:57:08;;;;;;;4.80;4.40;;;18.70;91.20;;;;;;919238;151;27359;-76
2022/09/13 06:59:34;;;;;;;5.47;4.72;;;18.80;91.40;;;;;;919140;152;27341;-76
2022/09/13 07:02:01;;;;;;;5.10;4.15;;;18.80;91.60;;;;;;918398;152;27785;-76
2022/09/13 07:04:30;;;;;;;4.67;4.28;;;18.90;91.80;;;;;;918587;151;27400;-76
2022/09/13 07:06:54;;;;;;;5.03;4.62;;;19.00;91.70;;;;;;917154;152;27349;-76
2022/09/13 07:09:21;;;;;;;4.87;4.37;;;19.10;91.50;;;;;;915607;151;27445;-76
2022/09/13 07:11:47;;;;;;;4.92;4.53;;;19.20;91.30;;;;;;913341;152;27352;-76
2022/09/13 07:14:14;;;;;;;4.78;4.28;;;19.20;90.50;;;;;;910705;153;27373;-75
2022/09/13 07:16:40;;;;;;;4.20;3.80;;;19.30;90.60;;;;;;912488;153;27397;-76
2022/09/13 07:19:07;;;;;;;4.62;4.20;;;19.40;90.50;;;;;;913031;153;27327;-76
2022/09/13 07:21:34;;;;;;;4.83;4.42;;;19.50;90.40;;;;;;910937;153;27424;-76
2022/09/13 07:24:00;;;;;;;5.00;4.62;;;19.50;90.20;;;;;;912600;153;27505;-76
2022/09/13 07:26:27;;;;;;;4.53;4.12;;;19.60;90.00;;;;;;914025;153;27344;-76
2022/09/13 07:28:53;;;;;;;4.55;4.15;;;19.70;89.70;;;;;;912976;153;27340;-76
2022/09/13 07:31:20;;;;;;;4.42;4.12;;;19.70;89.40;;;;;;914154;153;27405;-76
2022/09/13 07:33:47;;;;;;;4.33;4.03;;;19.80;89.30;;;;;;914764;153;27359;-76
2022/09/13 07:36:13;;;;;;;5.25;4.75;;;19.90;89.10;;;;;;912995;152;27470;-76
2022/09/13 07:38:40;;;;;;;4.70;4.30;;;20.00;88.30;;;;;;911083;153;27434;-76
2022/09/13 07:41:07;;;;;;;4.70;4.30;;;20.00;87.60;;;;;;911832;153;27398;-76
2022/09/13 07:43:33;;;;;;;4.17;3.77;;;20.10;87.40;;;;;;914243;152;27330;-76
2022/09/13 07:46:02;;;;;;;4.85;4.45;;;20.20;87.20;;;;;;912572;153;27279;-76
2022/09/13 07:48:29;;;;;;;3.87;3.58;;;20.20;86.50;;;;;;909129;153;27335;-76
2022/09/13 07:51:01;;;;;;;4.53;4.12;;;20.30;86.00;;;;;;913702;153;27343;-76
2022/09/13 07:53:28;;;;;;;5.00;4.25;;;20.40;85.60;;;;;;913144;153;27428;-76
2022/09/13 07:55:54;;;;;;;5.62;4.20;;;20.50;85.20;;;;;;912823;153;27659;-76
2022/09/13 07:58:21;;;;;;;4.42;4.05;;;20.50;84.90;;;;;;911977;152;27311;-76
2022/09/13 08:00:47;;;;;;;3.85;3.62;;;20.50;84.60;;;;;;913025;153;27394;-76
2022/09/13 08:03:14;;;;;;;6.47;3.85;;;20.60;84.40;;;;;;915106;153;27296;-76
2022/09/13 08:05:41;;;;;;;4.30;3.85;;;20.60;84.20;;;;;;912332;153;27359;-76
2022/09/13 08:08:07;;;;;;;6.22;4.20;;;20.70;84.40;;;;;;913420;153;27445;-77
2022/09/13 08:10:34;;;;;;;4.53;4.12;;;20.70;84.30;;;;;;915326;152;27307;-77
2022/09/13 08:13:00;;;;;;;3.83;3.52;;;20.80;84.20;;;;;;918612;152;27469;-76
2022/09/13 08:15:27;;;;;;;4.45;4.10;;;20.90;84.10;;;;;;918550;152;27430;-76
2022/09/13 08:17:54;;;;;;;4.60;4.20;;;21.00;83.90;;;;;;917588;152;27432;-76
2022/09/13 08:20:21;;;;;;;4.55;4.15;;;21.10;83.30;;;;;;919137;152;27455;-76
2022/09/13 08:22:47;;;;;;;4.42;4.03;;;21.20;82.70;;;;;;918452;152;27254;-76
2022/09/13 08:25:13;;;;;;;5.12;4.45;;;21.30;82.00;;;;;;917352;152;27375;-76
2022/09/13 08:27:40;;;;;;;3.65;3.40;;;21.40;81.40;;;;;;919352;152;27369;-76
2022/09/13 08:30:07;;;;;;;4.35;3.95;;;21.50;80.80;;;;;;917031;152;27347;-76
2022/09/13 08:32:33;;;;;;;4.12;3.80;;;21.50;80.20;;;;;;920035;152;27332;-76
2022/09/13 08:35:01;;;;;;;4.37;3.98;;;21.60;79.70;;;;;;919411;152;27335;-76
2022/09/13 08:37:26;;;;;;;4.40;4.05;;;21.70;80.10;;;;;;919967;152;27310;-76
2022/09/13 08:39:53;;;;;;;4.00;3.60;;;21.70;78.90;;;;;;918146;152;27341;-76
2022/09/13 08:42:20;;;;;;;3.87;3.58;;;21.70;78.50;;;;;;918560;152;27459;-76
2022/09/13 08:44:49;;;;;;;4.65;4.25;;;21.80;78.20;;;;;;919417;152;27383;-76
2022/09/13 08:47:31;;;;;;;8.58;3.98;;;21.80;78.00;;;;;;920880;152;27427;-77
2022/09/13 08:50:12;;;;;;;4.60;4.20;;;21.90;77.80;;;;;;919875;152;27390;-76
2022/09/13 08:53:00;;;;;;;4.45;4.15;;;22.00;77.60;;;;;;918277;152;27363;-75
2022/09/13 08:55:57;;;;;;;3.75;3.45;;;22.00;77.70;;;;;;918544;151;28835;-76
2022/09/13 08:58:33;;;;;;;4.03;3.72;;;22.10;77.80;;;;;;917538;152;27795;-76
2022/09/13 09:01:08;;;;;;;4.70;4.15;;;22.20;77.90;;;;;;916685;152;27312;-76
2022/09/13 09:03:40;;;;;;;4.50;3.92;;;22.30;77.80;;;;;;919203;152;27283;-76
2022/09/13 09:06:07;;;;;;;4.22;3.92;;;22.50;78.00;;;;;;917543;152;27464;-76
2022/09/13 09:08:46;;;;;;;4.20;3.90;;;22.70;77.80;;;;;;916622;152;27340;-76
2022/09/13 09:11:14;;;;;;;3.85;3.55;;;22.90;77.40;;;;;;919578;151;27366;-75
2022/09/13 09:13:41;;;;;;;3.67;3.30;;;23.10;76.70;;;;;;916643;152;27319;-76
2022/09/13 09:16:13;;;;;;;3.95;3.62;;;23.30;76.20;;;;;;918936;152;27693;-76
2022/09/13 09:18:40;;;;;;;3.58;3.27;;;23.50;76.20;;;;;;915897;152;27341;-76
2022/09/13 09:21:06;;;;;;;3.83;3.55;;;23.70;74.70;;;;;;919166;152;27333;-76
2022/09/13 09:23:38;;;;;;;6.30;3.90;;;23.90;73.70;;;;;;916695;152;27894;-76
2022/09/13 09:26:20;;;;;;;4.08;3.67;;;24.10;73.20;;;;;;918617;151;27937;-76
2022/09/13 09:28:50;;;;;;;3.85;3.55;;;24.20;72.60;;;;;;918827;152;27704;-76
2022/09/13 09:31:28;;;;;;;3.77;3.42;;;24.30;71.70;;;;;;919016;152;27471;-76
2022/09/13 09:34:22;;;;;;;3.87;3.55;;;24.50;71.00;;;;;;919870;152;27677;-76
2022/09/13 09:36:52;;;;;;;3.83;3.52;;;24.50;71.40;;;;;;918256;152;27328;-76
2022/09/13 09:39:18;;;;;;;3.72;3.42;;;24.60;71.40;;;;;;921264;152;27367;-76
2022/09/13 09:41:45;;;;;;;4.80;4.25;;;24.60;71.30;;;;;;918666;152;27353;-76
2022/09/13 09:44:20;;;;;;;4.33;3.80;;;24.60;71.40;;;;;;918794;152;27975;-76
2022/09/13 09:46:49;;;;;;;4.08;3.47;;;24.50;71.80;;;;;;917407;152;27276;-76
2022/09/13 09:52:01;;;;;;;3.30;3.00;;;24.40;71.40;;;;;;918797;152;27305;-77
2022/09/13 09:54:29;;;;;;;3.37;3.17;;;24.30;71.70;;;;;;919539;152;27351;-76
2022/09/13 09:56:54;;;;;;;4.03;3.72;;;24.10;72.20;;;;;;920456;151;27359;-76
2022/09/13 09:59:30;;;;;;;3.45;3.17;;;24.10;72.80;;;;;;917877;151;27295;-77
2022/09/13 10:01:56;;;;;;;3.47;3.17;;;23.90;72.80;;;;;;918999;152;27323;-77
2022/09/13 10:04:22;;;;;;;3.58;3.27;;;23.90;72.60;;;;;;920411;152;27367;-76
2022/09/13 10:06:50;;;;;;;3.80;3.50;;;23.80;72.90;;;;;;917689;152;27344;-76
2022/09/13 10:09:15;;;;;;;3.55;3.25;;;23.70;72.80;;;;;;917673;152;27311;-77
2022/09/13 10:11:48;;;;;;;3.92;3.60;;;23.70;73.50;;;;;;918021;152;27353;-76
2022/09/13 10:14:33;;;;;;;3.95;3.65;;;23.60;72.90;;;;;;918472;152;27331;-77
2022/09/13 10:17:05;;;;;;;3.85;3.47;;;23.50;72.60;;;;;;919972;152;27371;-76
2022/09/13 10:19:32;;;;;;;4.67;3.40;;;23.50;72.50;;;;;;920779;152;27434;-76
2022/09/13 10:21:58;;;;;;;3.45;3.25;;;23.40;72.50;;;;;;920387;151;27466;-76
2022/09/13 10:24:25;;;;;;;3.70;3.40;;;23.30;73.20;;;;;;916720;152;27332;-76
2022/09/13 10:26:52;;;;;;;3.98;3.65;;;23.20;73.50;;;;;;919059;152;27282;-76
2022/09/13 10:29:18;;;;;;;5.33;3.60;;;23.20;73.80;;;;;;921750;152;27365;-76
2022/09/13 10:31:45;;;;;;;4.90;3.30;;;23.00;73.60;;;;;;918344;151;27370;-77
2022/09/13 10:34:19;;;;;;;3.72;3.52;;;23.00;73.70;;;;;;917589;152;27453;-76
2022/09/13 10:36:52;;;;;;;4.40;4.00;;;22.90;73.70;;;;;;919111;152;27479;-76
2022/09/13 10:39:20;;;;;;;4.08;3.70;;;22.80;74.00;;;;;;918324;152;27311;-77
2022/09/13 10:41:57;;;;;;;3.58;3.33;;;22.80;74.60;;;;;;917864;152;27457;-76
2022/09/13 10:44:25;;;;;;;3.67;3.37;;;22.70;75.60;;;;;;919736;152;27499;-76
2022/09/13 10:46:51;;;;;;;4.08;3.77;;;22.70;76.30;;;;;;920140;152;27308;-76
2022/09/13 10:49:36;;;;;;;4.70;4.30;;;22.70;77.00;;;;;;917960;152;27318;-76
2022/09/13 10:52:02;;;;;;;4.08;3.72;;;22.70;77.20;;;;;;919154;152;27375;-76
2022/09/13 10:54:29;;;;;;;3.87;3.58;;;22.90;78.10;;;;;;915284;152;27382;-76
2022/09/13 10:56:55;;;;;;;4.62;4.22;;;22.90;77.80;;;;;;920787;152;27424;-76
2022/09/13 10:59:26;;;;;;;3.90;3.60;;;23.10;78.20;;;;;;919809;152;27804;-76
2022/09/13 11:02:16;;;;;;;3.87;3.58;;;23.20;77.60;;;;;;919564;152;27333;-76
2022/09/13 11:05:05;;;;;;;3.90;3.55;;;23.40;77.50;;;;;;917659;152;27829;-76
2022/09/13 11:07:52;;;;;;;4.33;3.92;;;23.50;77.50;;;;;;919977;152;27374;-77
2022/09/13 11:10:36;;;;;;;4.40;4.00;;;23.70;77.10;;;;;;919816;152;27380;-76
2022/09/13 11:13:24;;;;;;;6.35;3.72;;;23.90;76.90;;;;;;920506;151;27340;-76
2022/09/13 11:15:56;;;;;;;3.95;3.58;;;24.10;76.20;;;;;;918115;152;27358;-76
2022/09/13 11:18:34;;;;;;;3.98;3.60;;;24.30;76.00;;;;;;920301;151;27350;-76
2022/09/13 11:21:13;;;;;;;4.10;3.80;;;24.50;75.60;;;;;;892302;154;27775;-76
2022/09/13 11:24:06;;;;;;;4.08;3.77;;;24.60;74.60;;;;;;915451;151;27453;-76
2022/09/13 11:26:33;;;;;;;4.53;4.12;;;24.80;73.40;;;;;;909377;154;27789;-76
2022/09/13 11:29:24;;;;;;;4.25;3.87;;;25.00;72.70;;;;;;920877;151;28881;-76
2022/09/13 11:32:12;;;;;;;4.28;3.90;;;25.10;72.50;;;;;;917814;152;27421;-76
2022/09/13 11:35:06;;;;;;;3.77;3.47;;;25.20;72.20;;;;;;917124;151;27328;-77
2022/09/13 11:37:57;;;;;;;4.15;3.75;;;25.40;72.50;;;;;;918780;152;27312;-76
2022/09/13 11:40:38;;;;;;;4.92;3.17;;;25.50;72.40;;;;;;917072;152;27358;-76
2022/09/13 11:43:05;;;;;;;3.85;3.40;;;25.70;72.10;;;;;;918210;152;27311;-77
2022/09/13 11:45:47;;;;;;;7.45;6.72;;;25.90;71.70;;;;;;918475;151;27462;-77
2022/09/13 11:48:44;;;;;;;4.28;3.87;;;26.00;71.50;;;;;;918589;152;27378;-76
2022/09/13 11:51:29;;;;;;;3.65;3.15;;;26.20;70.70;;;;;;919615;152;27484;-76
2022/09/13 11:54:14;;;;;;;3.55;3.33;;;26.40;70.30;;;;;;919214;152;27345;-76
2022/09/13 11:56:46;;;;;;;3.60;3.00;;;26.50;69.60;;;;;;918535;152;27444;-76
2022/09/13 11:59:12;;;;;;;3.80;3.37;;;26.60;68.80;;;;;;917717;152;27361;-76
2022/09/13 12:01:39;;;;;;;2.72;2.52;;;26.70;68.20;;;;;;918777;152;27344;-76
2022/09/13 12:04:06;;;;;;;3.80;3.15;;;26.70;68.00;;;;;;916407;152;27289;-77
2022/09/13 12:06:35;;;;;;;3.42;3.12;;;26.80;67.80;;;;;;917067;152;28026;-76
2022/09/13 12:09:05;;;;;;;3.45;3.25;;;26.80;67.20;;;;;;918195;152;27745;-76
2022/09/13 12:11:34;;;;;;;3.35;3.12;;;26.80;66.50;;;;;;917993;152;27535;-77
2022/09/13 12:14:06;;;;;;;3.80;3.15;;;26.80;66.20;;;;;;918209;152;27419;-77
2022/09/13 12:16:33;;;;;;;3.95;3.22;;;26.80;66.10;;;;;;918434;152;27474;-77
2022/09/13 12:19:02;;;;;;;2.90;2.67;;;26.80;66.20;;;;;;916989;152;27316;-76
2022/09/13 12:21:28;;;;;;;2.95;2.75;;;26.80;66.70;;;;;;919025;152;27484;-76
2022/09/13 12:24:07;;;;;;;3.60;2.92;;;26.70;67.10;;;;;;918837;152;27313;-77
2022/09/13 12:26:34;;;;;;;2.75;2.55;;;26.80;66.80;;;;;;917993;152;27483;-76
2022/09/13 12:29:19;;;;;;;2.65;2.45;;;26.80;66.50;;;;;;917648;152;27427;-76
2022/09/13 12:31:45;;;;;;;2.85;2.65;;;26.80;66.20;;;;;;920017;152;27829;-76
2022/09/13 12:34:15;;;;;;;2.33;2.22;;;26.80;66.00;;;;;;918902;152;27426;-76
2022/09/13 12:36:50;;;;;;;2.83;2.58;;;26.90;65.80;;;;;;916770;152;27313;-76
2022/09/13 12:39:32;;;;;;;2.62;2.42;;;26.90;65.70;;;;;;917828;152;27291;-77
2022/09/13 12:42:19;;;;;;;2.87;2.67;;;26.90;65.50;;;;;;917839;152;27464;-76
2022/09/13 12:45:05;;;;;;;3.45;3.15;;;26.90;65.60;;;;;;917483;152;27949;-75
2022/09/13 12:47:40;;;;;;;3.40;3.10;;;26.90;65.70;;;;;;918371;152;27464;-76
2022/09/13 12:50:09;;;;;;;2.80;2.60;;;26.90;65.60;;;;;;917994;152;27269;-76
2022/09/13 12:52:45;;;;;;;3.25;2.95;;;27.00;65.40;;;;;;918240;152;27448;-76
2022/09/13 12:55:30;;;;;;;2.62;2.47;;;27.00;65.00;;;;;;917456;152;27366;-77
2022/09/13 12:57:59;;;;;;;3.25;3.05;;;27.00;64.70;;;;;;919341;152;27481;-76
2022/09/13 13:00:34;;;;;;;2.90;2.60;;;27.10;64.60;;;;;;918827;152;27282;-76
2022/09/13 13:03:13;;;;;;;3.83;2.98;;;27.00;64.40;;;;;;917389;152;27416;-76
2022/09/13 13:05:48;;;;;;;3.35;3.05;;;27.00;64.60;;;;;;919023;152;27384;-76
2022/09/13 13:08:20;;;;;;;4.35;3.05;;;27.00;64.70;;;;;;917723;152;27315;-75